createdAt,value
2023-03-11T00:00:47.248Z,17.7
2023-03-11T00:20:58.475Z,17.5
2023-03-11T00:40:52.571Z,17.5
2023-03-11T01:00:46.762Z,17.4
2023-03-11T01:20:48.108Z,17.3
2023-03-11T01:40:49.920Z,17.3
2023-03-11T02:00:45.967Z,17.3
2023-03-11T02:20:46.232Z,17.3
2023-03-11T02:40:46.851Z,17.2
2023-03-11T03:00:46.417Z,17.2
2023-03-11T03:20:46.416Z,17.1
2023-03-11T03:40:45.687Z,17.1
2023-03-11T04:00:45.592Z,17.1
2023-03-11T04:20:46.741Z,17.1
2023-03-11T04:40:46.170Z,17.1
2023-03-11T05:01:06.152Z,17.1
2023-03-11T05:20:47.354Z,17
2023-03-11T05:40:48.755Z,17.1
2023-03-11T06:00:47.061Z,17.1
2023-03-11T06:21:10.916Z,17.1
2023-03-11T06:41:11.036Z,17.1
2023-03-11T07:01:12.136Z,17.2
2023-03-11T07:21:11.508Z,17.6
2023-03-11T07:41:11.574Z,18.1
2023-03-11T08:01:12.502Z,18.6
2023-03-11T08:21:11.334Z,19.1
2023-03-11T08:41:11.943Z,19.4
2023-03-11T09:01:09.697Z,19.6
2023-03-11T09:21:11.948Z,20
2023-03-11T09:41:12.044Z,20
2023-03-11T10:01:16.900Z,20.1
2023-03-11T10:21:12.155Z,20.1
2023-03-11T10:41:11.019Z,20.1
2023-03-11T11:01:14.896Z,20.2
2023-03-11T11:21:11.667Z,20.2
2023-03-11T11:41:10.587Z,20.1
2023-03-11T12:01:13.851Z,20
2023-03-11T12:21:11.289Z,20
2023-03-11T12:41:12.111Z,20
2023-03-11T13:01:12.287Z,19.9
2023-03-11T13:21:11.385Z,19.8
2023-03-11T13:41:11.566Z,19.8
2023-03-11T14:01:11.714Z,19.8
2023-03-11T14:21:14.007Z,19.2
2023-03-11T14:41:12.700Z,19.2
2023-03-11T15:01:13.017Z,19.1
2023-03-11T15:21:17.432Z,19.3
2023-03-11T15:41:11.511Z,19.3
2023-03-11T16:01:16.742Z,19.3
2023-03-11T16:21:11.701Z,19.3
2023-03-11T16:41:18.318Z,19.2
2023-03-11T17:01:11.671Z,19.2
2023-03-11T17:21:14.075Z,19.1
2023-03-11T17:40:45.603Z,19
2023-03-11T18:00:46.176Z,19.1
2023-03-11T18:20:45.808Z,19
2023-03-11T18:40:47.073Z,18.9
2023-03-11T19:00:46.354Z,19
2023-03-11T19:20:45.708Z,18.9
2023-03-11T19:40:49.977Z,18.9
2023-03-11T20:00:49.320Z,18.9
2023-03-11T20:20:46.906Z,19
2023-03-11T20:40:45.796Z,18.9
2023-03-11T21:00:46.707Z,18.9
2023-03-11T21:20:47.540Z,18.9
2023-03-11T21:40:46.646Z,18.8
2023-03-11T22:00:47.153Z,18.7
2023-03-11T22:20:47.209Z,18.6
2023-03-11T22:40:45.546Z,18.6
2023-03-11T23:00:55.911Z,18.4
2023-03-11T23:20:45.972Z,18.4
2023-03-11T23:40:46.205Z,18.3
